Time;durP1;ratioP1;P1;durP2;ratioP2;P2;SDS_P1;SDS_P2;PMS_P1;PMS_P2;Temp;Humidity;BMP_temperature;BMP_pressure;BME280_temperature;BME280_humidity;BME280_pressure;Samples;Min_cycle;Max_cycle;Signal;HPM_P1;HPM_P2
2022/09/22 00:00:54;;;;;;;0.20;0.20;;;;;;;10.29;97.23;99312.41;5070141;28;20239;-82
2022/09/22 00:03:21;;;;;;;0.87;0.73;;;;;;;10.13;97.88;99320.28;5070540;28;20206;-82
2022/09/22 00:05:48;;;;;;;0.40;0.40;;;;;;;10.02;98.00;99316.81;5070496;28;20222;-82
2022/09/22 00:08:15;;;;;;;0.47;0.40;;;;;;;10.01;98.40;99321.09;5070507;28;20194;-82
2022/09/22 00:10:42;;;;;;;0.30;0.30;;;;;;;9.90;98.50;99305.66;5072793;28;20240;-82
2022/09/22 00:13:10;;;;;;;0.20;0.20;;;;;;;9.87;98.11;99305.84;5074353;28;20199;-82
2022/09/22 00:15:37;;;;;;;0.30;0.30;;;;;;;9.77;98.55;99302.25;5074459;28;20222;-82
2022/09/22 00:18:04;;;;;;;0.30;0.30;;;;;;;9.73;98.78;99302.47;5074839;28;20203;-82
2022/09/22 00:20:31;;;;;;;0.37;0.30;;;;;;;9.60;99.33;99301.66;5074023;28;20226;-82
2022/09/22 00:22:57;;;;;;;0.63;0.10;;;;;;;9.59;99.88;99299.16;5074465;28;20207;-82
2022/09/22 00:25:25;;;;;;;0.57;0.57;;;;;;;9.48;100.00;99293.03;5074179;28;20245;-82
2022/09/22 00:27:53;;;;;;;1.10;0.87;;;;;;;9.40;100.00;99297.00;5074136;28;20700;-82
2022/09/22 00:30:23;;;;;;;0.50;0.50;;;;;;;9.32;100.00;99291.56;5074331;28;20276;-82
2022/09/22 00:32:49;;;;;;;0.27;0.27;;;;;;;9.22;100.00;99292.16;5074136;28;20199;-82
2022/09/22 00:35:16;;;;;;;0.50;0.50;;;;;;;9.25;100.00;99293.66;5074069;28;20222;-82
2022/09/22 00:37:43;;;;;;;0.20;0.20;;;;;;;9.23;100.00;99288.69;5074421;28;20213;-82
2022/09/22 00:40:11;;;;;;;0.13;0.13;;;;;;;9.25;100.00;99296.22;5074169;28;20649;-82
2022/09/22 00:42:38;;;;;;;0.30;0.30;;;;;;;9.37;100.00;99292.09;5074130;28;20226;-82
2022/09/22 00:45:06;;;;;;;0.70;0.70;;;;;;;9.45;100.00;99292.41;5073669;28;20202;-82
2022/09/22 00:47:38;;;;;;;0.40;0.40;;;;;;;9.51;100.00;99284.34;5074052;28;20293;-82
2022/09/22 00:50:12;;;;;;;0.30;0.30;;;;;;;9.58;100.00;99290.69;5073949;28;20282;-82
2022/09/22 00:52:43;;;;;;;0.40;0.40;;;;;;;9.60;100.00;99286.31;5074025;28;20206;-82
2022/09/22 00:55:15;;;;;;;0.53;0.53;;;;;;;9.58;100.00;99280.50;5073686;28;20222;-82
2022/09/22 00:57:45;;;;;;;0.30;0.30;;;;;;;9.63;100.00;99278.47;5073623;28;20198;-82
2022/09/22 01:00:13;;;;;;;0.20;0.20;;;;;;;9.61;100.00;99287.94;5073299;28;20230;-82
2022/09/22 01:02:42;;;;;;;0.40;0.40;;;;;;;9.56;100.00;99284.88;5073999;28;20591;-82
2022/09/22 01:05:09;;;;;;;0.40;0.40;;;;;;;9.57;100.00;99286.53;5073773;28;20227;-82
2022/09/22 01:07:37;;;;;;;0.20;0.20;;;;;;;9.65;100.00;99286.81;5073683;28;20646;-82
2022/09/22 01:10:04;;;;;;;0.63;0.63;;;;;;;9.68;100.00;99283.25;5073780;28;20340;-82
2022/09/22 01:12:32;;;;;;;0.33;0.33;;;;;;;9.69;100.00;99275.50;5073311;28;20207;-82
2022/09/22 01:15:11;;;;;;;0.20;0.20;;;;;;;9.59;100.00;99277.00;5073369;28;20213;-82
2022/09/22 01:17:52;;;;;;;0.43;0.43;;;;;;;9.61;100.00;99276.94;5073340;28;20210;-82
2022/09/22 01:21:11;;;;;;;0.43;0.43;;;;;;;9.60;99.82;99282.94;5073499;28;20237;-82
2022/09/22 01:24:25;;;;;;;0.50;0.40;;;;;;;9.53;100.00;99277.41;5072876;28;20198;-82
2022/09/22 01:27:28;;;;;;;0.10;0.10;;;;;;;9.55;99.44;99285.81;5073118;28;20233;-82
2022/09/22 01:30:16;;;;;;;0.73;0.50;;;;;;;9.48;99.56;99285.38;5072693;28;20206;-82
2022/09/22 01:33:02;;;;;;;0.20;0.20;;;;;;;9.51;99.28;99286.91;5073135;28;20214;-82
2022/09/22 01:35:32;;;;;;;0.30;0.30;;;;;;;9.38;99.03;99281.78;5070527;28;20230;-82
2022/09/22 01:38:09;;;;;;;0.10;0.10;;;;;;;9.35;99.18;99287.06;5073521;28;20673;-82
2022/09/22 01:40:41;;;;;;;0.30;0.30;;;;;;;9.35;99.15;99276.88;5073176;28;20245;-82
2022/09/22 01:43:15;;;;;;;0.30;0.30;;;;;;;9.33;98.70;99288.09;5073410;28;20206;-82
2022/09/22 01:45:47;;;;;;;0.30;0.30;;;;;;;9.26;98.60;99290.22;5072467;28;20218;-82
2022/09/22 01:48:17;;;;;;;0.40;0.40;;;;;;;9.16;99.02;99297.66;5072636;28;20202;-82
2022/09/22 01:50:48;;;;;;;0.23;0.23;;;;;;;9.04;99.25;99289.00;5072482;28;20755;-82
2022/09/22 01:53:18;;;;;;;0.30;0.30;;;;;;;8.99;99.68;99290.22;5072593;28;20682;-82
2022/09/22 01:55:48;;;;;;;0.27;0.27;;;;;;;8.95;100.00;99294.69;5073228;28;20230;-82
2022/09/22 01:58:17;;;;;;;0.40;0.40;;;;;;;8.97;100.00;99294.59;5072664;28;20201;-82
2022/09/22 02:00:50;;;;;;;0.30;0.30;;;;;;;8.99;99.99;99291.03;5072887;28;20258;-82
2022/09/22 02:03:21;;;;;;;0.10;0.10;;;;;;;8.96;100.00;99296.34;5072629;28;20601;-82
2022/09/22 02:05:53;;;;;;;0.47;0.47;;;;;;;8.88;100.00;99297.72;5072556;28;20226;-82
2022/09/22 02:08:26;;;;;;;0.40;0.40;;;;;;;8.92;100.00;99296.63;5072461;28;20419;-82
2022/09/22 02:10:57;;;;;;;0.10;0.10;;;;;;;8.88;100.00;99292.63;5072389;28;20705;-82
2022/09/22 02:13:24;;;;;;;0.33;0.33;;;;;;;8.84;100.00;99291.97;5072690;28;20201;-81
2022/09/22 02:16:01;;;;;;;0.30;0.30;;;;;;;8.86;100.00;99292.72;5072602;28;20241;-82
2022/09/22 02:18:32;;;;;;;0.37;0.37;;;;;;;8.90;100.00;99291.63;5072646;28;20202;-82
2022/09/22 02:20:59;;;;;;;0.30;0.30;;;;;;;8.88;100.00;99292.63;5072390;28;20759;-82
2022/09/22 02:23:27;;;;;;;0.40;0.40;;;;;;;9.00;100.00;99292.66;5072393;28;20198;-82
2022/09/22 02:25:55;;;;;;;0.10;0.10;;;;;;;9.00;100.00;99286.75;5071891;28;20218;-82
2022/09/22 02:28:24;;;;;;;0.17;0.17;;;;;;;9.01;99.86;99286.66;5072040;28;20214;-82
2022/09/22 02:30:55;;;;;;;0.33;0.33;;;;;;;9.05;99.79;99292.41;5072080;28;20221;-82
2022/09/22 02:33:25;;;;;;;0.50;0.50;;;;;;;9.03;99.90;99292.47;5071313;28;20214;-82
2022/09/22 02:36:04;;;;;;;0.10;0.10;;;;;;;9.04;99.85;99288.19;5071997;28;20230;-82
2022/09/22 02:38:37;;;;;;;0.53;0.50;;;;;;;9.01;99.11;99286.66;5072354;28;20215;-82
2022/09/22 02:41:11;;;;;;;0.30;0.20;;;;;;;8.98;98.62;99286.84;5071700;28;20238;-82
2022/09/22 02:43:42;;;;;;;0.20;0.20;;;;;;;8.89;99.30;99286.59;5072089;28;20210;-82
2022/09/22 02:46:16;;;;;;;0.50;0.50;;;;;;;8.82;99.71;99281.88;5071945;28;20230;-82
2022/09/22 02:48:47;;;;;;;0.30;0.30;;;;;;;8.83;99.92;99283.50;5072130;28;20206;-82
2022/09/22 02:51:15;;;;;;;0.40;0.40;;;;;;;8.88;100.00;99279.88;5071934;28;20222;-82
2022/09/22 02:53:42;;;;;;;0.30;0.30;;;;;;;8.80;99.80;99276.06;5072147;28;20202;-82
2022/09/22 02:56:09;;;;;;;0.40;0.40;;;;;;;8.76;99.92;99273.81;5071344;28;20233;-82
2022/09/22 02:58:36;;;;;;;0.30;0.30;;;;;;;8.81;99.75;99280.25;5071811;28;20681;-82
2022/09/22 03:01:03;;;;;;;0.30;0.30;;;;;;;8.80;99.72;99280.34;5071628;28;20227;-82
2022/09/22 03:03:32;;;;;;;0.07;0.07;;;;;;;8.70;99.76;99285.19;5071936;28;20210;-82
2022/09/22 03:05:59;;;;;;;0.40;0.40;;;;;;;8.65;100.00;99282.09;5071032;28;20636;-82
2022/09/22 03:08:26;;;;;;;0.20;0.20;;;;;;;8.68;100.00;99287.00;5071571;28;20707;-82
2022/09/22 03:10:52;;;;;;;0.20;0.20;;;;;;;8.58;100.00;99276.56;5071012;28;20707;-82
2022/09/22 03:13:19;;;;;;;0.37;0.37;;;;;;;8.57;100.00;99277.47;5071079;28;20199;-82
2022/09/22 03:15:47;;;;;;;0.40;0.40;;;;;;;8.59;100.00;99288.38;5071471;28;20816;-82
2022/09/22 03:18:15;;;;;;;0.10;0.10;;;;;;;8.64;100.00;99289.84;5071112;28;20198;-82
2022/09/22 03:20:43;;;;;;;0.13;0.13;;;;;;;8.58;100.00;99291.03;5071506;28;20238;-82
2022/09/22 03:23:10;;;;;;;0.67;0.50;;;;;;;8.57;100.00;99289.41;5071196;28;20984;-82
2022/09/22 03:25:37;;;;;;;0.17;0.17;;;;;;;8.50;100.00;99290.69;5070962;28;20678;-81
2022/09/22 03:28:04;;;;;;;0.63;0.50;;;;;;;8.47;100.00;99278.13;5070754;28;20241;-82
2022/09/22 03:30:31;;;;;;;0.20;0.20;;;;;;;8.46;100.00;99284.13;5071049;28;20226;-82
2022/09/22 03:32:58;;;;;;;0.20;0.20;;;;;;;8.42;100.00;99275.03;5071390;28;20211;-82
2022/09/22 03:35:25;;;;;;;0.20;0.20;;;;;;;8.45;100.00;99279.94;5071235;28;20226;-82
2022/09/22 03:37:53;;;;;;;0.30;0.30;;;;;;;8.41;100.00;99288.66;5070959;28;20225;-82
2022/09/22 03:40:21;;;;;;;0.77;0.60;;;;;;;8.35;100.00;99290.66;5070891;28;20234;-81
2022/09/22 03:42:47;;;;;;;0.20;0.20;;;;;;;8.39;100.00;99292.13;5071140;28;20198;-82
2022/09/22 03:45:15;;;;;;;0.30;0.30;;;;;;;8.34;100.00;99283.91;5070744;28;20218;-82
2022/09/22 03:47:42;;;;;;;0.50;0.50;;;;;;;8.26;100.00;99283.56;5070938;28;20203;-81
2022/09/22 03:50:09;;;;;;;0.30;0.30;;;;;;;8.28;100.00;99288.56;5070555;28;20229;-82
2022/09/22 03:52:36;;;;;;;0.43;0.43;;;;;;;8.26;100.00;99295.47;5071064;28;20587;-82
2022/09/22 03:55:05;;;;;;;0.30;0.30;;;;;;;8.27;100.00;99297.94;5070839;28;20210;-82
2022/09/22 03:57:32;;;;;;;0.30;0.30;;;;;;;8.23;100.00;99293.09;5070816;28;20233;-82
2022/09/22 03:59:59;;;;;;;0.30;0.30;;;;;;;8.17;100.00;99291.75;5071004;28;20213;-82
2022/09/22 04:02:26;;;;;;;0.50;0.50;;;;;;;8.11;100.00;99298.00;5070958;28;20198;-82
2022/09/22 04:04:53;;;;;;;0.30;0.30;;;;;;;8.13;100.00;99296.19;5071117;28;20293;-82
2022/09/22 04:07:20;;;;;;;0.40;0.40;;;;;;;8.13;100.00;99303.03;5070907;28;20223;-82
2022/09/22 04:09:46;;;;;;;0.20;0.20;;;;;;;8.10;100.00;99301.47;5071186;28;20203;-82
2022/09/22 04:12:15;;;;;;;0.73;0.43;;;;;;;8.02;100.00;99302.81;5070532;28;20747;-82
2022/09/22 04:14:42;;;;;;;0.60;0.60;;;;;;;8.07;100.00;99305.94;5070679;28;20205;-82
2022/09/22 04:17:09;;;;;;;0.70;0.70;;;;;;;8.06;100.00;99304.31;5069843;28;20226;-82
2022/09/22 04:19:35;;;;;;;0.30;0.30;;;;;;;8.09;100.00;99304.13;5070225;28;20632;-82
2022/09/22 04:22:03;;;;;;;0.37;0.37;;;;;;;8.03;100.00;99309.56;5070421;28;20242;-82
2022/09/22 04:24:29;;;;;;;0.10;0.10;;;;;;;7.93;100.00;99314.38;5070647;28;20252;-81
2022/09/22 04:26:56;;;;;;;0.30;0.30;;;;;;;7.93;100.00;99305.00;5070115;28;20230;-81
2022/09/22 04:29:25;;;;;;;0.10;0.10;;;;;;;7.92;100.00;99308.47;5070213;28;20206;-82
2022/09/22 04:31:51;;;;;;;0.20;0.20;;;;;;;7.90;100.00;99312.81;5069961;28;20226;-82
2022/09/22 04:34:18;;;;;;;0.40;0.40;;;;;;;7.89;100.00;99308.63;5070483;28;20206;-82
2022/09/22 04:36:45;;;;;;;0.20;0.20;;;;;;;7.88;100.00;99312.09;5070575;28;20253;-82
2022/09/22 04:39:12;;;;;;;0.33;0.33;;;;;;;7.94;100.00;99313.44;5070006;28;20701;-82
2022/09/22 04:41:39;;;;;;;0.40;0.40;;;;;;;7.96;100.00;99315.91;5070026;28;20242;-82
2022/09/22 04:44:05;;;;;;;0.13;0.13;;;;;;;7.96;100.00;99321.00;5070167;28;20201;-82
2022/09/22 04:46:34;;;;;;;0.50;0.50;;;;;;;8.06;100.00;99324.69;5070255;28;20211;-82
2022/09/22 04:49:00;;;;;;;0.00;0.00;;;;;;;8.05;100.00;99323.84;5070642;28;20453;-82
2022/09/22 04:51:27;;;;;;;1.23;0.87;;;;;;;8.10;100.00;99318.50;5070284;28;20245;-82
2022/09/22 04:53:54;;;;;;;0.20;0.20;;;;;;;8.15;100.00;99316.50;5070162;28;20199;-82
2022/09/22 04:56:21;;;;;;;0.60;0.60;;;;;;;8.22;100.00;99314.41;5069778;28;20218;-82
2022/09/22 04:58:48;;;;;;;0.20;0.20;;;;;;;8.30;100.00;99317.31;5074236;28;20202;-81
2022/09/22 05:01:15;;;;;;;0.30;0.27;;;;;;;8.37;100.00;99311.75;5073823;28;20242;-82
2022/09/22 05:03:43;;;;;;;0.30;0.30;;;;;;;8.45;100.00;99305.44;5074038;28;20226;-82
2022/09/22 05:06:10;;;;;;;0.30;0.30;;;;;;;8.52;100.00;99311.78;5073686;28;20851;-82
2022/09/22 05:08:36;;;;;;;0.27;0.23;;;;;;;8.70;100.00;99305.59;5074231;28;20586;-82
2022/09/22 05:11:05;;;;;;;0.30;0.30;;;;;;;8.88;100.00;99313.84;5073664;28;20222;-82
2022/09/22 05:13:32;;;;;;;0.20;0.20;;;;;;;9.09;100.00;99321.88;5074073;28;20602;-82
2022/09/22 05:15:59;;;;;;;0.47;0.47;;;;;;;9.26;100.00;99319.09;5073515;28;20230;-82
2022/09/22 05:18:26;;;;;;;0.30;0.30;;;;;;;9.47;99.99;99326.31;5074076;28;20222;-82
2022/09/22 05:20:54;;;;;;;0.53;0.53;;;;;;;9.65;99.76;99320.00;5073649;28;20229;-82
2022/09/22 05:23:21;;;;;;;0.47;0.33;;;;;;;9.73;98.04;99327.19;5073232;28;20217;-82
2022/09/22 05:25:48;;;;;;;0.63;0.63;;;;;;;9.90;97.55;99331.19;5073448;28;20214;-81
2022/09/22 05:28:15;;;;;;;0.30;0.30;;;;;;;9.96;96.38;99333.34;5073750;28;20209;-82
2022/09/22 05:30:42;;;;;;;0.30;0.30;;;;;;;10.09;95.20;99341.00;5074653;28;20399;-82
2022/09/22 05:33:08;;;;;;;0.43;0.43;;;;;;;10.18;94.41;99337.84;5074517;28;20202;-82
2022/09/22 05:35:35;;;;;;;0.30;0.30;;;;;;;10.21;94.11;99342.78;5073684;28;20211;-82
2022/09/22 05:38:04;;;;;;;0.80;0.80;;;;;;;10.26;93.30;99345.00;5073809;28;20191;-82
2022/09/22 05:40:30;;;;;;;0.40;0.40;;;;;;;10.41;92.75;99349.09;5073390;28;20231;-82
2022/09/22 05:42:57;;;;;;;0.77;0.77;;;;;;;10.59;92.94;99354.75;5073640;28;20214;-82
2022/09/22 05:45:24;;;;;;;0.57;0.50;;;;;;;10.93;93.65;99349.84;5072850;28;20225;-82
2022/09/22 05:47:52;;;;;;;0.30;0.30;;;;;;;11.09;92.46;99356.34;5073165;28;20484;-82
2022/09/22 05:50:20;;;;;;;0.70;0.70;;;;;;;11.22;91.31;99345.25;5073064;28;20400;-81
2022/09/22 05:52:47;;;;;;;0.60;0.37;;;;;;;11.34;91.10;99349.50;5073692;28;20202;-82
2022/09/22 05:55:15;;;;;;;0.33;0.33;;;;;;;11.54;92.10;99345.50;5073192;28;20218;-82
2022/09/22 05:57:43;;;;;;;0.30;0.30;;;;;;;11.79;92.01;99344.56;5072534;28;20210;-82
2022/09/22 06:00:11;;;;;;;0.53;0.53;;;;;;;11.96;89.64;99343.34;5072877;28;20226;-82
2022/09/22 06:02:39;;;;;;;0.83;0.67;;;;;;;12.26;89.23;99347.94;5073111;28;20238;-82
2022/09/22 06:05:06;;;;;;;0.37;0.37;;;;;;;12.18;86.59;99355.38;5075195;28;20290;-82
2022/09/22 06:07:33;;;;;;;0.40;0.40;;;;;;;12.38;86.84;99352.13;5073823;28;20205;-82
2022/09/22 06:10:00;;;;;;;1.03;0.80;;;;;;;12.60;87.03;99348.78;5074065;28;20210;-82
2022/09/22 06:12:28;;;;;;;0.70;0.60;;;;;;;12.68;86.67;99348.16;5073894;28;20293;-83
2022/09/22 06:14:56;;;;;;;1.20;0.50;;;;;;;12.73;84.62;99348.63;5073235;28;20589;-83
2022/09/22 06:17:23;;;;;;;0.53;0.50;;;;;;;12.90;85.75;99343.00;5072797;28;20214;-82
2022/09/22 06:19:50;;;;;;;0.57;0.57;;;;;;;12.94;84.08;99347.91;5072658;28;20235;-83
2022/09/22 06:22:17;;;;;;;0.50;0.50;;;;;;;13.14;84.04;99350.53;5072461;28;20241;-82
2022/09/22 06:24:45;;;;;;;0.50;0.50;;;;;;;13.33;83.16;99344.81;5072810;28;20250;-82
2022/09/22 06:27:11;;;;;;;0.50;0.50;;;;;;;13.47;82.92;99355.75;5071710;28;20239;-83
2022/09/22 06:29:40;;;;;;;3.10;1.67;;;;;;;13.58;83.07;99358.25;5072167;28;20667;-84
2022/09/22 06:32:08;;;;;;;1.00;0.77;;;;;;;13.85;81.74;99354.41;5071676;28;20223;-83
2022/09/22 06:34:35;;;;;;;0.80;0.57;;;;;;;13.96;81.25;99362.03;5072076;28;20206;-82
2022/09/22 06:37:02;;;;;;;0.90;0.50;;;;;;;14.02;81.93;99359.81;5072157;28;20223;-82
2022/09/22 06:39:29;;;;;;;0.77;0.70;;;;;;;13.89;79.37;99368.63;5071948;28;20218;-82
2022/09/22 06:41:56;;;;;;;0.63;0.63;;;;;;;14.14;80.35;99364.88;5072035;28;20231;-83
2022/09/22 06:44:23;;;;;;;0.80;0.80;;;;;;;14.29;80.46;99362.78;5072322;28;20208;-82
2022/09/22 06:46:51;;;;;;;0.40;0.40;;;;;;;14.55;79.89;99374.31;5071481;28;20303;-83
2022/09/22 06:49:19;;;;;;;0.50;0.50;;;;;;;14.74;79.78;99375.31;5071833;28;20212;-82
2022/09/22 06:51:48;;;;;;;1.00;1.00;;;;;;;14.58;80.68;99376.63;5071937;28;20218;-83
2022/09/22 06:54:15;;;;;;;0.83;0.73;;;;;;;14.74;78.64;99377.91;5071650;28;20665;-82
2022/09/22 06:56:43;;;;;;;0.70;0.70;;;;;;;14.58;77.74;99376.63;5071709;28;20688;-82
2022/09/22 06:59:13;;;;;;;0.60;0.60;;;;;;;14.55;78.42;99374.31;5072010;28;20643;-82
2022/09/22 07:01:41;;;;;;;2.30;0.73;;;;;;;14.53;78.11;99378.75;5071444;28;20260;-82
2022/09/22 07:04:10;;;;;;;0.53;0.53;;;;;;;15.08;79.63;99371.50;5071694;28;20601;-83
2022/09/22 07:06:39;;;;;;;0.60;0.53;;;;;;;15.26;76.56;99378.56;5071911;28;20844;-82
2022/09/22 07:09:08;;;;;;;0.80;0.80;;;;;;;15.26;74.52;99376.81;5072585;28;20701;-82
2022/09/22 07:11:34;;;;;;;1.00;1.00;;;;;;;15.40;76.32;99380.75;5072323;28;20291;-82
2022/09/22 07:14:01;;;;;;;0.77;0.70;;;;;;;15.72;77.77;99372.78;5072034;28;20210;-83
2022/09/22 07:16:29;;;;;;;2.17;1.10;;;;;;;16.01;80.22;99385.66;5071470;28;20740;-82
2022/09/22 07:18:58;;;;;;;1.53;0.77;;;;;;;16.03;75.69;99381.19;5071458;28;20377;-83
2022/09/22 07:21:28;;;;;;;0.60;0.60;;;;;;;16.22;75.32;99382.06;5070846;28;20297;-82
2022/09/22 07:23:56;;;;;;;0.80;0.80;;;;;;;16.24;73.84;99380.19;5070816;28;20216;-82
2022/09/22 07:26:27;;;;;;;1.20;1.10;;;;;;;16.19;74.11;99372.03;5071662;28;20226;-82
2022/09/22 07:28:57;;;;;;;1.03;0.63;;;;;;;16.15;71.36;99375.88;5071670;28;20195;-82
2022/09/22 07:31:24;;;;;;;0.53;0.43;;;;;;;16.22;70.87;99369.19;5071365;28;20783;-82
2022/09/22 07:33:53;;;;;;;0.90;0.70;;;;;;;16.52;71.65;99378.44;5070976;28;20199;-82
2022/09/22 07:36:21;;;;;;;0.53;0.53;;;;;;;16.53;71.40;99370.56;5071308;28;20218;-82
2022/09/22 07:38:51;;;;;;;0.70;0.57;;;;;;;16.70;67.57;99386.28;5072415;28;20461;-81
2022/09/22 07:41:20;;;;;;;0.80;0.77;;;;;;;16.94;68.50;99378.84;5072697;28;20706;-82
2022/09/22 07:43:49;;;;;;;0.90;0.70;;;;;;;17.06;67.59;99376.88;5071744;28;20202;-82
2022/09/22 07:46:16;;;;;;;1.17;0.73;;;;;;;17.13;68.38;99382.25;5071290;28;20225;-81
2022/09/22 07:48:45;;;;;;;2.13;0.80;;;;;;;17.31;71.87;99388.28;5071705;28;20205;-82
2022/09/22 07:51:15;;;;;;;0.80;0.70;;;;;;;17.54;65.45;99385.22;5071536;28;20311;-81
2022/09/22 07:53:42;;;;;;;0.70;0.70;;;;;;;17.58;67.25;99384.00;5071426;28;20282;-82
2022/09/22 07:56:12;;;;;;;1.30;1.10;;;;;;;17.60;66.79;99385.47;5070617;28;20222;-81
2022/09/22 07:58:47;;;;;;;1.20;0.83;;;;;;;17.77;67.38;99376.09;5071865;28;20553;-82
2022/09/22 08:01:14;;;;;;;0.67;0.67;;;;;;;18.02;67.55;99384.84;5070123;28;20233;-82
2022/09/22 08:03:41;;;;;;;0.50;0.50;;;;;;;17.98;63.88;99387.91;5070496;28;20202;-83
2022/09/22 08:06:10;;;;;;;0.83;0.80;;;;;;;17.88;63.15;99382.81;5070888;28;20216;-82
2022/09/22 08:08:38;;;;;;;1.17;1.00;;;;;;;17.71;62.95;99376.66;5070691;28;20191;-82
2022/09/22 08:11:07;;;;;;;0.50;0.50;;;;;;;18.14;66.00;99382.81;5072323;28;20301;-83
2022/09/22 08:13:36;;;;;;;0.77;0.60;;;;;;;18.23;66.21;99381.91;5071870;28;20195;-83
2022/09/22 08:16:03;;;;;;;0.50;0.50;;;;;;;18.29;59.06;99381.28;5071652;28;20230;-82
2022/09/22 08:18:31;;;;;;;0.60;0.60;;;;;;;18.51;59.44;99384.34;5071439;28;20289;-83
2022/09/22 08:20:59;;;;;;;1.20;0.80;;;;;;;18.61;61.15;99379.03;5071210;28;20256;-83
2022/09/22 08:23:26;;;;;;;2.23;0.80;;;;;;;18.89;55.41;99393.44;5070923;28;20317;-83
2022/09/22 08:25:53;;;;;;;0.67;0.60;;;;;;;18.90;57.39;99384.69;5070460;28;20250;-83
2022/09/22 08:28:20;;;;;;;0.70;0.70;;;;;;;18.81;54.20;99395.19;5070613;28;20205;-81
2022/09/22 08:30:48;;;;;;;0.73;0.70;;;;;;;18.96;59.86;99378.84;5070534;28;20214;-83
2022/09/22 08:33:15;;;;;;;1.20;0.87;;;;;;;19.06;55.51;99373.56;5073779;28;20212;-82
2022/09/22 08:35:53;;;;;;;0.70;0.67;;;;;;;19.13;57.31;99374.53;5074527;28;20218;-83
2022/09/22 08:38:22;;;;;;;0.77;0.70;;;;;;;19.28;56.98;99372.13;5075829;28;20241;-83
2022/09/22 08:40:59;;;;;;;0.60;0.60;;;;;;;19.45;56.63;99372.97;5075344;28;20215;-82
2022/09/22 08:43:30;;;;;;;0.50;0.50;;;;;;;19.42;53.74;99368.09;5079394;28;20356;-82
2022/09/22 08:46:00;;;;;;;0.90;0.67;;;;;;;19.66;55.66;99360.38;5080613;28;20210;-81
2022/09/22 08:54:03;;;;;;;0.73;0.70;;;;;;;19.96;53.52;99365.88;5076044;28;20333;-80
2022/09/22 08:56:35;;;;;;;1.27;0.80;;;;;;;20.12;53.08;99365.81;5086150;28;20232;-83
2022/09/22 08:59:09;;;;;;;0.60;0.60;;;;;;;20.49;53.76;99367.03;5083531;28;20636;-82
2022/09/22 09:01:54;;;;;;;0.63;0.63;;;;;;;20.52;53.13;99361.53;5073415;28;20575;-82
2022/09/22 09:04:46;;;;;;;0.67;0.67;;;;;;;20.58;54.04;99365.25;5071968;28;20673;-83
2022/09/22 09:07:20;;;;;;;0.70;0.67;;;;;;;20.44;51.53;99358.94;5073690;28;20335;-83
2022/09/22 09:09:59;;;;;;;1.40;0.73;;;;;;;20.29;52.75;99355.41;5073727;28;20216;-82
2022/09/22 09:12:43;;;;;;;1.97;1.20;;;;;;;20.12;51.39;99363.22;5073793;28;20212;-82
2022/09/22 09:15:27;;;;;;;0.50;0.50;;;;;;;20.65;52.27;99353.19;5072536;28;20224;-82
2022/09/22 09:18:01;;;;;;;1.10;0.93;;;;;;;20.93;54.84;99353.53;5079199;28;20700;-83
2022/09/22 09:20:35;;;;;;;0.90;0.77;;;;;;;20.94;51.29;99354.34;5075953;28;20229;-82
2022/09/22 09:23:10;;;;;;;0.87;0.77;;;;;;;21.25;54.50;99346.53;5074795;28;20232;-82
2022/09/22 09:25:40;;;;;;;0.80;0.80;;;;;;;21.42;48.94;99348.06;5074946;28;20308;-82
2022/09/22 09:28:13;;;;;;;0.90;0.67;;;;;;;21.24;49.48;99350.94;5075059;28;20223;-82
2022/09/22 09:30:45;;;;;;;0.77;0.60;;;;;;;21.31;50.99;99348.44;5074026;28;20493;-82
2022/09/22 09:33:23;;;;;;;1.07;0.63;;;;;;;21.40;45.83;99350.00;5073679;28;20232;-82
2022/09/22 09:35:52;;;;;;;0.60;0.57;;;;;;;21.44;46.45;99340.91;5072860;28;20225;-82
2022/09/22 09:38:27;;;;;;;0.50;0.50;;;;;;;21.63;47.53;99339.59;5073551;28;20666;-83
2022/09/22 09:41:02;;;;;;;0.70;0.70;;;;;;;21.62;47.04;99335.38;5072469;28;20260;-83
2022/09/22 09:43:32;;;;;;;0.33;0.33;;;;;;;20.99;46.17;99342.47;5072141;28;20233;-82
2022/09/22 09:46:13;;;;;;;0.40;0.40;;;;;;;21.35;46.40;99346.28;5073567;28;20340;-83
2022/09/22 09:48:58;;;;;;;0.90;0.70;;;;;;;21.44;46.16;99340.09;5071625;28;20818;-81
2022/09/22 09:51:25;;;;;;;0.30;0.30;;;;;;;21.48;47.04;99336.94;5072863;28;20230;-83
2022/09/22 09:53:55;;;;;;;1.00;0.90;;;;;;;21.63;48.25;99342.19;5074011;28;20735;-85
2022/09/22 09:56:25;;;;;;;0.93;0.80;;;;;;;21.88;43.86;99334.19;5074359;28;20271;-83
2022/09/22 10:01:43;;;;;;;1.40;1.00;;;;;;;21.78;47.68;99337.00;5073234;28;20224;-85
2022/09/22 10:04:23;;;;;;;0.77;0.73;;;;;;;22.01;44.17;99341.38;5072992;28;20431;-83
2022/09/22 10:06:50;;;;;;;1.00;0.90;;;;;;;22.18;45.97;99340.22;5072128;28;20215;-85
2022/09/22 10:09:25;;;;;;;0.80;0.80;;;;;;;22.09;46.44;99338.69;5072507;28;20257;-83
2022/09/22 10:11:59;;;;;;;0.70;0.70;;;;;;;22.07;43.35;99335.44;5072292;28;20225;-83
2022/09/22 10:14:31;;;;;;;2.77;2.07;;;;;;;21.84;42.73;99338.09;5073438;28;20193;-86
2022/09/22 10:16:58;;;;;;;1.27;1.00;;;;;;;21.81;44.61;99330.66;5072100;28;20239;-84
2022/09/22 10:19:29;;;;;;;0.70;0.70;;;;;;;21.74;43.74;99322.75;5073354;28;20211;-82
2022/09/22 10:22:21;;;;;;;0.63;0.63;;;;;;;21.66;43.90;99322.81;5071392;28;20606;-83
2022/09/22 10:25:00;;;;;;;1.23;1.00;;;;;;;22.14;45.28;99325.94;5072563;28;20221;-85
2022/09/22 10:27:30;;;;;;;0.53;0.53;;;;;;;22.59;43.99;99330.13;5073216;28;20200;-84
2022/09/22 10:30:21;;;;;;;1.40;0.73;;;;;;;22.88;43.04;99322.44;5074804;28;20202;-83
2022/09/22 10:33:14;;;;;;;0.65;0.65;;;;;;;22.91;43.42;99322.06;5072038;28;20717;-86
2022/09/22 10:35:44;;;;;;;0.57;0.57;;;;;;;22.89;42.34;99313.63;5072402;28;20291;-84
2022/09/22 10:38:18;;;;;;;0.65;0.60;;;;;;;23.28;42.64;99319.25;5072521;28;20205;-88
2022/09/22 10:40:48;;;;;;;0.70;0.70;;;;;;;23.30;40.93;99318.25;5073711;28;20230;-85
2022/09/22 10:43:38;;;;;;;1.02;0.80;;;;;;;23.18;42.60;99310.91;5071487;28;20238;-84
2022/09/22 10:46:31;;;;;;;0.63;0.50;;;;;;;23.22;39.85;99314.78;5071766;28;20730;-84
2022/09/22 10:49:08;;;;;;;0.70;0.70;;;;;;;23.05;42.69;99311.63;5072980;28;20685;-85
2022/09/22 10:51:49;;;;;;;0.43;0.43;;;;;;;22.88;40.60;99306.78;5071127;28;20245;-86
2022/09/22 10:54:27;;;;;;;1.20;0.80;;;;;;;22.84;43.45;99311.56;5070340;28;20205;-85
2022/09/22 10:56:58;;;;;;;0.63;0.63;;;;;;;22.87;41.94;99298.16;5070749;28;20223;-84
2022/09/22 10:59:40;;;;;;;0.57;0.57;;;;;;;22.69;41.47;99295.97;5070316;28;20563;-85
2022/09/22 11:02:34;;;;;;;0.57;0.57;;;;;;;22.67;41.14;99300.56;5071314;28;20234;-85
2022/09/22 11:05:17;;;;;;;1.15;0.70;;;;;;;22.45;42.89;99288.47;5071829;28;20742;-85
2022/09/22 11:13:50;;;;;;;0.97;0.80;;;;;;;22.35;43.08;99292.16;5072069;28;20205;-84
2022/09/22 11:16:34;;;;;;;0.50;0.50;;;;;;;22.75;42.58;99286.63;5071204;28;20253;-84
2022/09/22 11:19:34;;;;;;;0.50;0.50;;;;;;;23.01;43.03;99286.09;5070971;28;20199;-85
2022/09/22 11:22:16;;;;;;;1.17;0.57;;;;;;;23.24;39.30;99284.09;5069593;28;20699;-85
2022/09/22 11:25:01;;;;;;;0.50;0.50;;;;;;;22.79;38.78;99282.63;5073974;28;20211;-85
2022/09/22 11:27:44;;;;;;;0.40;0.40;;;;;;;22.53;37.83;99286.56;5072397;28;20207;-85
2022/09/22 11:30:21;;;;;;;0.28;0.28;;;;;;;23.01;39.26;99275.69;5070649;28;20229;-85
2022/09/22 11:33:14;;;;;;;0.82;0.68;;;;;;;23.00;40.80;99268.81;5070329;28;20234;-85
2022/09/22 11:35:50;;;;;;;0.50;0.47;;;;;;;23.10;36.87;99264.13;5072687;28;20230;-86
2022/09/22 11:38:37;;;;;;;0.60;0.60;;;;;;;23.17;36.20;99266.78;5070495;28;20203;-85
2022/09/22 11:41:20;;;;;;;0.80;0.75;;;;;;;23.43;37.83;99263.56;5067924;28;20207;-85
2022/09/22 11:44:24;;;;;;;3.83;2.17;;;;;;;23.51;38.89;99260.81;5068466;28;20222;-85
2022/09/22 11:47:16;;;;;;;3.78;2.42;;;;;;;23.26;38.21;99255.22;5065497;28;20305;-85
2022/09/22 11:49:58;;;;;;;2.80;1.52;;;;;;;23.56;36.05;99258.47;5067807;28;20201;-84
2022/09/22 11:52:34;;;;;;;12.38;6.45;;;;;;;23.28;35.97;99248.81;5070288;28;20198;-85
2022/09/22 11:55:24;;;;;;;5.68;2.13;;;;;;;23.41;37.59;99257.72;5070098;28;20701;-85
2022/09/22 11:57:58;;;;;;;8.13;3.75;;;;;;;23.47;38.54;99256.97;5070309;28;20199;-84
2022/09/22 12:00:30;;;;;;;1.15;1.05;;;;;;;23.44;39.16;99252.13;5070385;28;20218;-84
2022/09/22 12:03:02;;;;;;;5.03;1.92;;;;;;;23.42;38.77;99251.53;5070369;28;20276;-85
2022/09/22 12:05:34;;;;;;;0.40;0.40;;;;;;;23.30;38.83;99253.03;5070183;28;20230;-85
2022/09/22 12:08:05;;;;;;;0.43;0.43;;;;;;;23.18;36.78;99243.09;5072471;28;20225;-83